Time;durP1;ratioP1;P1;durP2;ratioP2;P2;SDS_P1;SDS_P2;PMS_P1;PMS_P2;Temp;Humidity;BMP_temperature;BMP_pressure;BME280_temperature;BME280_humidity;BME280_pressure;Samples;Min_cycle;Max_cycle;Signal;HPM_P1;HPM_P2
2023/08/03 07:55:23;;;;;;;;;;;;;;;6.24;100.00;98354.22;5010982;28;19980;-87
2023/08/03 07:57:49;;;;;;;;;;;;;;;6.03;100.00;98357.88;5012716;28;19921;-88
2023/08/03 08:00:14;;;;;;;;;;;;;;;6.09;100.00;98360.22;4994745;28;19944;-87
2023/08/03 08:02:39;;;;;;;;;;;;;;;6.12;100.00;98363.53;5010652;28;20004;-88
2023/08/03 08:05:05;;;;;;;;;;;;;;;6.02;100.00;98366.69;4994887;28;19965;-88
2023/08/03 08:07:32;;;;;;;;;;;;;;;5.95;100.00;98373.97;4993175;28;19924;-89
2023/08/03 08:09:58;;;;;;;;;;;;;;;5.93;100.00;98379.28;4966713;28;19922;-87
2023/08/03 08:12:23;;;;;;;;;;;;;;;6.15;100.00;98376.53;4968184;28;20285;-90
2023/08/03 08:14:48;;;;;;;;;;;;;;;5.96;100.00;98375.69;4968569;28;20262;-88
2023/08/03 08:17:13;;;;;;;;;;;;;;;5.91;100.00;98382.94;4969309;28;19977;-88
2023/08/03 08:19:39;;;;;;;;;;;;;;;5.98;100.00;98381.75;4968694;28;19969;-88
2023/08/03 08:22:06;;;;;;;;;;;;;;;6.18;100.00;98388.72;4950048;28;19922;-88
2023/08/03 08:24:32;;;;;;;;;;;;;;;6.15;100.00;98386.22;4967446;28;20469;-87
2023/08/03 08:26:57;;;;;;;;;;;;;;;6.04;100.00;98378.00;4968017;28;20013;-87
2023/08/03 08:29:22;;;;;;;;;;;;;;;5.85;100.00;98393.72;4968783;28;19965;-87
2023/08/03 08:31:49;;;;;;;;;;;;;;;6.04;100.00;98388.50;4970140;28;20313;-87
2023/08/03 08:34:14;;;;;;;;;;;;;;;5.99;100.00;98407.97;4985973;28;20048;-87
2023/08/03 08:36:40;;;;;;;;;;;;;;;6.11;100.00;98411.81;5010343;28;20352;-87
2023/08/03 08:39:05;;;;;;;;;;;;;;;5.99;100.00;98418.47;4993011;28;19928;-88
2023/08/03 08:41:30;;;;;;;;;;;;;;;5.93;100.00;98423.97;5011399;28;19925;-89
2023/08/03 08:43:56;;;;;;;;;;;;;;;5.93;100.00;98423.13;4994349;28;19917;-85
2023/08/03 08:46:21;;;;;;;;;;;;;;;6.01;100.00;98418.41;4986309;28;20312;-87
2023/08/03 08:48:46;;;;;;;;;;;;;;;6.04;100.00;98420.06;4994201;28;19917;-87
2023/08/03 08:51:13;;;;;;;;;;;;;;;5.92;100.00;98427.56;5010120;28;19918;-88
2023/08/03 08:53:38;;;;;;;;;;;;;;;6.25;100.00;98413.78;5014785;28;20296;-87
2023/08/03 08:56:03;;;;;;;;;;;;;;;6.13;100.00;98427.53;5040767;28;20015;-87
2023/08/03 08:58:29;;;;;;;;;;;;;;;5.91;100.00;98420.59;5040410;28;20379;-88
2023/08/03 09:01:01;;;;;;;;;;;;;;;5.95;100.00;98427.41;5022436;28;19921;-86
2023/08/03 09:03:27;;;;;;;;;;;;;;;5.99;100.00;98431.63;5038783;28;19923;-86
2023/08/03 09:05:59;;;;;;;;;;;;;;;5.99;100.00;98434.25;5041536;28;19917;-84
2023/08/03 09:08:26;;;;;;;;;;;;;;;6.25;100.00;98434.81;5041697;28;20387;-88
2023/08/03 09:10:55;;;;;;;;;;;;;;;5.86;100.00;98451.50;5044107;28;19921;-87
2023/08/03 09:13:27;;;;;;;;;;;;;;;6.26;100.00;98451.50;5026695;28;19964;-86
2023/08/03 09:15:53;;;;;;;;;;;;;;;5.98;100.00;98463.25;5027132;28;19916;-89
2023/08/03 09:18:18;;;;;;;;;;;;;;;6.02;100.00;98450.84;5043449;28;20407;-87
2023/08/03 09:20:43;;;;;;;;;;;;;;;6.23;100.00;98451.63;5043309;28;19959;-87
2023/08/03 09:23:09;;;;;;;;;;;;;;;6.11;100.00;98461.78;5024949;28;20074;-87
2023/08/03 09:25:34;;;;;;;;;;;;;;;6.14;100.00;98456.41;5026624;28;19917;-87
2023/08/03 09:27:59;;;;;;;;;;;;;;;6.07;100.00;98456.75;5027166;28;19924;-87
2023/08/03 09:30:25;;;;;;;;;;;;;;;6.28;100.00;98463.63;5027088;28;19917;-87
2023/08/03 09:32:50;;;;;;;;;;;;;;;6.23;100.00;98473.50;5043610;28;20486;-87
2023/08/03 09:35:20;;;;;;;;;;;;;;;5.99;100.00;98465.81;5044085;28;20319;-88
2023/08/03 09:37:45;;;;;;;;;;;;;;;5.89;100.00;98477.66;5043292;28;20412;-87
2023/08/03 09:40:11;;;;;;;;;;;;;;;6.02;100.00;98470.09;5044429;28;19953;-87
2023/08/03 09:42:39;;;;;;;;;;;;;;;5.94;100.00;98483.53;5043625;28;20019;-86
2023/08/03 09:45:06;;;;;;;;;;;;;;;6.02;100.00;98471.88;5022768;28;19971;-87
2023/08/03 09:47:32;;;;;;;;;;;;;;;6.18;100.00;98467.63;5026548;28;19917;-87
2023/08/03 09:49:57;;;;;;;;;;;;;;;5.95;100.00;98484.38;5041136;28;19918;-87
2023/08/03 09:52:25;;;;;;;;;;;;;;;5.93;100.00;98491.50;5042354;28;19925;-86
2023/08/03 09:55:13;;;;;;;;;;;;;;;6.44;100.00;98484.81;5022653;28;19932;-87
2023/08/03 09:57:49;;;;;;;;;;;;;;;6.25;100.00;98487.44;5014046;28;19929;-87
2023/08/03 10:00:16;;;;;;;;;;;;;;;6.09;100.00;98486.44;5014638;28;19957;-87
2023/08/03 10:02:51;;;;;;;;;;;;;;;6.17;100.00;98476.41;5014738;28;20360;-87
2023/08/03 10:05:17;;;;;;;;;;;;;;;5.92;100.00;98490.66;4997032;28;19917;-87
2023/08/03 10:07:48;;;;;;;;;;;;;;;5.90;100.00;98497.75;5013260;28;19921;-87
2023/08/03 10:10:15;;;;;;;;;;;;;;;5.88;100.00;98499.59;5014491;28;19924;-87
2023/08/03 10:12:43;;;;;;;;;;;;;;;5.82;100.00;98500.72;5014175;28;20343;-87
2023/08/03 10:15:09;;;;;;;;;;;;;;;6.16;100.00;98509.78;5014675;28;20375;-87
2023/08/03 10:17:35;;;;;;;;;;;;;;;6.03;100.00;98518.25;5013605;28;19945;-89
2023/08/03 10:20:03;;;;;;;;;;;;;;;5.91;100.00;98509.13;4996817;28;19929;-87
2023/08/03 10:22:28;;;;;;;;;;;;;;;6.06;100.00;98503.19;5013039;28;20016;-88
2023/08/03 10:25:12;;;;;;;;;;;;;;;5.93;100.00;98517.78;5014315;28;20447;-87
2023/08/03 10:27:37;;;;;;;;;;;;;;;6.09;100.00;98507.47;5015306;28;19928;-88
2023/08/03 10:30:06;;;;;;;;;;;;;;;6.10;100.00;98519.72;5013373;28;20016;-90
2023/08/03 10:32:31;;;;;;;;;;;;;;;5.94;100.00;98519.50;5014127;28;19944;-88
2023/08/03 10:35:27;;;;;;;;;;;;;;;5.93;100.00;98520.41;5014639;28;19918;-93
2023/08/03 10:37:53;;;;;;;;;;;;;;;5.95;100.00;98519.44;5013060;28;20023;-92
2023/08/03 10:40:21;;;;;;;;;;;;;;;6.11;100.00;98517.03;5014875;28;20344;-86
2023/08/03 10:43:06;;;;;;;;;;;;;;;5.94;100.00;98525.63;5014111;28;19924;-89
2023/08/03 10:45:31;;;;;;;;;;;;;;;5.82;100.00;98537.53;5013973;28;20377;-88
2023/08/03 10:48:01;;;;;;;;;;;;;;;5.90;100.00;98545.06;5013976;28;19922;-88
2023/08/03 10:51:02;;;;;;;;;;;;;;;5.91;100.00;98541.53;5013824;28;20257;-88
2023/08/03 10:53:27;;;;;;;;;;;;;;;5.88;100.00;98548.69;4934935;29;19926;-89
2023/08/03 10:56:03;;;;;;;;;;;;;;;5.79;100.00;98542.91;5015783;28;19917;-88
2023/08/03 10:58:28;;;;;;;;;;;;;;;5.96;100.00;98552.72;5033408;28;19925;-88
2023/08/03 11:00:54;;;;;;;;;;;;;;;5.97;100.00;98557.06;5033461;28;20427;-88
2023/08/03 11:03:19;;;;;;;;;;;;;;;6.00;100.00;98567.44;5033436;28;20350;-88
2023/08/03 11:05:52;;;;;;;;;;;;;;;5.96;100.00;98559.72;5033367;28;19979;-88
2023/08/03 11:08:18;;;;;;;;;;;;;;;5.90;100.00;98571.34;5021959;28;19961;-87
2023/08/03 11:10:44;;;;;;;;;;;;;;;5.89;100.00;98564.41;5032248;28;19917;-87
2023/08/03 11:13:09;;;;;;;;;;;;;;;5.94;100.00;98559.78;5033264;28;19925;-87
2023/08/03 11:15:34;;;;;;;;;;;;;;;5.95;100.00;98558.88;5033244;28;19917;-86
2023/08/03 11:17:59;;;;;;;;;;;;;;;5.96;100.00;98559.72;5033175;28;19937;-86
2023/08/03 11:21:03;;;;;;;;;;;;;;;5.87;100.00;98562.75;5033164;28;19917;-86
2023/08/03 11:23:31;;;;;;;;;;;;;;;5.82;100.00;98562.94;4935156;29;19977;-86
2023/08/03 11:25:57;;;;;;;;;;;;;;;5.89;100.00;98569.66;5017296;28;20277;-86
2023/08/03 11:28:22;;;;;;;;;;;;;;;5.81;100.00;98577.03;5031949;28;19918;-86
2023/08/03 11:30:48;;;;;;;;;;;;;;;5.92;100.00;98580.06;5032789;28;20327;-86
2023/08/03 11:33:13;;;;;;;;;;;;;;;5.86;100.00;98582.94;5032633;28;20300;-86
2023/08/03 11:35:39;;;;;;;;;;;;;;;5.85;100.00;98583.84;5032806;28;19917;-86
2023/08/03 11:47:42;;;;;;;;;;;;;;;5.80;100.00;98602.44;5032573;28;19931;-87
2023/08/03 11:50:07;;;;;;;;;;;;;;;5.77;100.00;98606.97;5015019;28;20375;-87
2023/08/03 11:52:32;;;;;;;;;;;;;;;5.83;100.00;98591.78;5031272;28;19917;-88
2023/08/03 11:54:58;;;;;;;;;;;;;;;5.79;100.00;98594.63;5032231;28;19936;-87
2023/08/03 12:00:09;;;;;;;;;;;;;;;5.79;100.00;98610.38;5032880;28;20390;-88
2023/08/03 12:02:37;;;;;;;;;;;;;;;5.87;100.00;98608.31;5013373;28;19923;-87
2023/08/03 12:05:02;;;;;;;;;;;;;;;5.86;100.00;98611.00;5014052;28;19921;-86
2023/08/03 12:07:27;;;;;;;;;;;;;;;5.77;100.00;98609.59;5030812;28;20501;-89
2023/08/03 12:09:53;;;;;;;;;;;;;;;5.72;100.00;98609.81;5014502;28;19924;-87
2023/08/03 12:12:18;;;;;;;;;;;;;;;5.75;100.00;98619.34;5032460;28;19917;-87
2023/08/03 12:14:43;;;;;;;;;;;;;;;5.89;100.00;98622.25;5013832;28;20352;-87
2023/08/03 12:17:12;;;;;;;;;;;;;;;5.97;100.00;98620.16;5014195;28;19960;-88
2023/08/03 12:19:38;;;;;;;;;;;;;;;5.75;100.00;98632.47;5018860;28;20257;-86
2023/08/03 12:22:03;;;;;;;;;;;;;;;5.77;100.00;98630.63;5033141;28;19956;-91
2023/08/03 12:24:29;;;;;;;;;;;;;;;5.84;100.00;98637.38;5033828;28;19971;-89
2023/08/03 12:26:54;;;;;;;;;;;;;;;5.85;100.00;98631.16;5013850;28;19922;-86
2023/08/03 12:29:19;;;;;;;;;;;;;;;5.83;100.00;98640.91;5030821;28;19924;-87
2023/08/03 12:31:45;;;;;;;;;;;;;;;5.78;100.00;98637.63;5030559;28;20296;-86
2023/08/03 12:34:10;;;;;;;;;;;;;;;5.74;100.00;98641.28;5032030;28;19924;-86
2023/08/03 12:36:35;;;;;;;;;;;;;;;5.75;100.00;98645.63;5014005;28;20380;-86
2023/08/03 12:39:05;;;;;;;;;;;;;;;5.80;100.00;98652.38;5011165;28;20516;-88
2023/08/03 12:41:30;;;;;;;;;;;;;;;5.95;100.00;98650.91;5013084;28;19987;-88
2023/08/03 12:43:55;;;;;;;;;;;;;;;5.94;100.00;98661.50;5032191;28;19944;-88
2023/08/03 12:46:20;;;;;;;;;;;;;;;5.85;100.00;98646.94;5031809;28;19924;-88
2023/08/03 12:48:46;;;;;;;;;;;;;;;5.78;100.00;98650.75;5013232;28;19918;-88
2023/08/03 12:51:11;;;;;;;;;;;;;;;5.81;100.00;98646.22;5030492;28;19924;-88
2023/08/03 12:53:37;;;;;;;;;;;;;;;6.42;100.00;98651.59;5030114;28;19921;-87
2023/08/03 12:56:03;;;;;;;;;;;;;;;6.00;100.00;98656.00;5031719;28;20046;-88
2023/08/03 12:58:28;;;;;;;;;;;;;;;5.83;100.00;98654.03;5031700;28;20303;-86
2023/08/03 13:00:55;;;;;;;;;;;;;;;5.77;100.00;98660.41;5031686;28;20319;-87
2023/08/03 13:03:21;;;;;;;;;;;;;;;5.78;100.00;98670.00;5013399;28;19917;-87
2023/08/03 13:05:46;;;;;;;;;;;;;;;5.78;100.00;98664.75;5013499;28;19917;-87
2023/08/03 13:08:12;;;;;;;;;;;;;;;5.88;100.00;98680.16;5012219;28;19971;-87
2023/08/03 13:10:37;;;;;;;;;;;;;;;5.86;100.00;98669.69;5014123;28;20045;-86
2023/08/03 13:13:02;;;;;;;;;;;;;;;6.01;100.00;98668.22;5034832;28;19951;-92
2023/08/03 13:15:28;;;;;;;;;;;;;;;5.85;100.00;98678.50;5036260;28;19943;-87
2023/08/03 13:17:53;;;;;;;;;;;;;;;5.81;100.00;98685.66;5031557;28;20359;-88
2023/08/03 13:20:18;;;;;;;;;;;;;;;5.90;100.00;98678.31;5031088;28;19922;-87
2023/08/03 13:22:44;;;;;;;;;;;;;;;5.77;100.00;98676.16;5029333;28;20296;-89
2023/08/03 13:25:09;;;;;;;;;;;;;;;5.77;100.00;98686.69;5031271;28;19921;-88
2023/08/03 13:27:34;;;;;;;;;;;;;;;5.83;100.00;98680.34;5031552;28;19917;-88
2023/08/03 13:30:00;;;;;;;;;;;;;;;5.78;100.00;98680.53;5011934;28;19925;-87
2023/08/03 13:32:25;;;;;;;;;;;;;;;5.90;100.00;98681.78;5012120;28;19921;-87
2023/08/03 13:34:50;;;;;;;;;;;;;;;5.85;100.00;98678.50;5031262;28;20386;-86
2023/08/03 13:37:16;;;;;;;;;;;;;;;5.95;100.00;98690.34;5029997;28;19928;-86
2023/08/03 13:39:41;;;;;;;;;;;;;;;5.85;100.00;98680.28;5031443;28;19987;-86
2023/08/03 13:42:08;;;;;;;;;;;;;;;5.82;100.00;98684.75;5031349;28;19928;-87
2023/08/03 13:44:34;;;;;;;;;;;;;;;5.86;100.00;98690.72;5029726;28;19981;-87
2023/08/03 13:47:02;;;;;;;;;;;;;;;5.85;100.00;98694.25;5012901;28;20009;-86
2023/08/03 13:49:28;;;;;;;;;;;;;;;5.82;100.00;98695.25;5012505;28;20011;-89
2023/08/03 13:51:53;;;;;;;;;;;;;;;5.89;100.00;98694.97;5031400;28;20007;-89
2023/08/03 13:54:19;;;;;;;;;;;;;;;5.88;100.00;98693.28;5015081;28;20023;-85
2023/08/03 13:56:45;;;;;;;;;;;;;;;6.02;100.00;98696.25;5035014;28;19924;-86
2023/08/03 13:59:11;;;;;;;;;;;;;;;5.93;100.00;98699.22;5016781;28;19921;-88
2023/08/03 14:01:37;;;;;;;;;;;;;;;6.18;100.00;98707.81;5015845;28;20012;-87
2023/08/03 14:04:02;;;;;;;;;;;;;;;6.18;100.00;98701.72;5028678;28;19956;-86
2023/08/03 14:06:27;;;;;;;;;;;;;;;5.86;100.00;98709.13;5016354;28;19979;-86
2023/08/03 14:08:53;;;;;;;;;;;;;;;5.95;100.00;98700.88;5033397;28;19917;-87
2023/08/03 14:11:18;;;;;;;;;;;;;;;5.96;100.00;98713.13;5034537;28;20371;-85
2023/08/03 14:13:43;;;;;;;;;;;;;;;5.96;100.00;98718.38;5034409;28;19917;-88
2023/08/03 14:16:11;;;;;;;;;;;;;;;5.92;100.00;98711.50;5016408;28;19976;-86
2023/08/03 14:18:37;;;;;;;;;;;;;;;5.92;100.00;98711.50;5034582;28;20012;-87
2023/08/03 14:21:02;;;;;;;;;;;;;;;5.79;100.00;98710.28;5035015;28;19925;-87
2023/08/03 14:23:27;;;;;;;;;;;;;;;5.95;100.00;98708.75;5036891;28;19992;-83
2023/08/03 14:25:53;;;;;;;;;;;;;;;5.82;100.00;98707.53;5034350;28;19917;-85
2023/08/03 14:28:18;;;;;;;;;;;;;;;5.80;100.00;98712.00;5016372;28;19917;-87
2023/08/03 14:30:43;;;;;;;;;;;;;;;5.87;100.00;98716.13;5034094;28;19925;-89
2023/08/03 14:33:08;;;;;;;;;;;;;;;5.94;100.00;98707.03;5034233;28;19952;-89
2023/08/03 14:35:34;;;;;;;;;;;;;;;5.89;100.00;98706.38;5015704;28;19924;-87
2023/08/03 14:37:59;;;;;;;;;;;;;;;5.98;100.00;98705.16;5032867;28;19917;-90
2023/08/03 14:40:24;;;;;;;;;;;;;;;5.82;100.00;98715.41;5034004;28;19917;-87
2023/08/03 14:42:50;;;;;;;;;;;;;;;5.92;100.00;98718.53;5034145;28;19917;-83
2023/08/03 14:45:15;;;;;;;;;;;;;;;5.82;100.00;98716.28;5015891;28;19929;-86
2023/08/03 14:47:40;;;;;;;;;;;;;;;5.85;100.00;98715.28;5033784;28;19932;-86
2023/08/03 14:50:06;;;;;;;;;;;;;;;5.84;100.00;98718.88;5032316;28;20368;-88
2023/08/03 14:52:31;;;;;;;;;;;;;;;5.87;100.00;98718.75;5008242;28;20426;-87
2023/08/03 14:54:56;;;;;;;;;;;;;;;5.83;100.00;98718.00;5001017;28;19921;-90
2023/08/03 14:57:21;;;;;;;;;;;;;;;5.88;100.00;98723.06;5014802;28;19944;-88
2023/08/03 14:59:47;;;;;;;;;;;;;;;5.88;100.00;98714.31;4995850;28;19917;-89
2023/08/03 15:02:12;;;;;;;;;;;;;;;5.84;100.00;98708.34;4996278;28;19921;-87
2023/08/03 15:04:40;;;;;;;;;;;;;;;5.95;100.00;98713.13;5013579;28;19968;-91
2023/08/03 15:07:05;;;;;;;;;;;;;;;5.81;100.00;98706.69;4995020;28;19917;-87
2023/08/03 15:09:30;;;;;;;;;;;;;;;6.07;100.00;98710.06;5013623;28;20352;-90
2023/08/03 15:11:56;;;;;;;;;;;;;;;5.96;100.00;98710.47;5013568;28;20246;-86
2023/08/03 15:14:21;;;;;;;;;;;;;;;5.90;100.00;98712.47;5013574;28;20360;-86
2023/08/03 15:16:47;;;;;;;;;;;;;;;5.93;100.00;98705.31;5012249;28;19922;-87
2023/08/03 15:19:12;;;;;;;;;;;;;;;6.12;100.00;98707.22;4997328;28;19939;-89
2023/08/03 15:21:37;;;;;;;;;;;;;;;6.14;100.00;98705.38;5011979;28;19929;-88
2023/08/03 15:24:03;;;;;;;;;;;;;;;6.15;100.00;98709.72;4994476;28;19917;-87
2023/08/03 15:26:29;;;;;;;;;;;;;;;6.00;100.00;98708.59;4997009;28;19925;-87
2023/08/03 15:28:54;;;;;;;;;;;;;;;5.94;100.00;98717.56;5013456;28;19937;-91
2023/08/03 15:31:20;;;;;;;;;;;;;;;6.03;100.00;98705.84;5013490;28;19913;-88
2023/08/03 15:36:44;;;;;;;;;;;;;;;6.11;100.00;98700.25;5071384;23;19951;-87
2023/08/03 15:39:09;;;;;;;;;;;;;;;6.09;100.00;98702.09;5043076;28;19924;-87
2023/08/03 15:41:34;;;;;;;;;;;;;;;6.05;100.00;98697.88;5065104;28;19920;-87
2023/08/03 15:44:01;;;;;;;;;;;;;;;6.07;100.00;98699.53;5046828;28;19943;-88
2023/08/03 15:46:27;;;;;;;;;;;;;;;5.96;100.00;98697.34;5067338;28;19924;-89
2023/08/03 15:48:53;;;;;;;;;;;;;;;6.01;100.00;98694.53;5067114;28;20398;-89
2023/08/03 15:51:19;;;;;;;;;;;;;;;5.99;100.00;98696.38;5068220;28;19931;-89
2023/08/03 15:53:44;;;;;;;;;;;;;;;5.97;100.00;98700.84;5052245;28;19917;-89
2023/08/03 15:56:10;;;;;;;;;;;;;;;5.98;100.00;98707.78;5046809;28;19923;-87
2023/08/03 15:58:36;;;;;;;;;;;;;;;6.02;100.00;98713.81;5065029;28;20015;-87
2023/08/03 16:01:02;;;;;;;;;;;;;;;6.03;100.00;98726.00;5045443;28;19917;-89
2023/08/03 16:03:27;;;;;;;;;;;;;;;5.87;100.00;98731.00;5063681;28;19951;-85
2023/08/03 16:05:53;;;;;;;;;;;;;;;5.98;100.00;98736.72;5061986;28;19920;-86
2023/08/03 16:08:18;;;;;;;;;;;;;;;5.89;100.00;98737.06;5041088;28;19958;-84
2023/08/03 16:10:43;;;;;;;;;;;;;;;5.97;100.00;98745.53;5063498;28;20375;-88
2023/08/03 16:13:09;;;;;;;;;;;;;;;5.93;100.00;98744.75;5043876;28;19928;-86
2023/08/03 16:18:14;;;;;;;;;;;;;;;5.83;100.00;98743.44;5761314;22;19924;-86
2023/08/03 16:20:39;;;;;;;;;;;;;;;5.93;100.00;98744.75;5033986;28;19920;-85
2023/08/03 16:23:04;;;;;;;;;;;;;;;5.93;100.00;98747.38;5050883;28;19924;-84
2023/08/03 16:25:29;;;;;;;;;;;;;;;6.11;100.00;98747.59;5033007;28;19979;-85
2023/08/03 16:27:55;;;;;;;;;;;;;;;5.91;100.00;98746.59;5031821;28;19956;-85
2023/08/03 16:30:46;;;;;;;;;;;;;;;5.82;100.00;98753.09;5050951;28;19921;-87
2023/08/03 16:33:12;;;;;;;;;;;;;;;5.99;100.00;98760.31;5026047;28;20007;-85
2023/08/03 16:35:37;;;;;;;;;;;;;;;5.91;100.00;98757.13;5051590;28;20019;-87
2023/08/03 16:38:03;;;;;;;;;;;;;;;5.90;100.00;98762.44;5031741;28;20376;-88
2023/08/03 16:40:28;;;;;;;;;;;;;;;5.95;100.00;98761.34;5050657;28;19920;-86
2023/08/03 16:42:54;;;;;;;;;;;;;;;5.90;100.00;98752.78;5050680;28;19921;-86
2023/08/03 16:45:19;;;;;;;;;;;;;;;5.96;100.00;98760.44;5033518;28;19967;-87
2023/08/03 16:47:44;;;;;;;;;;;;;;;5.93;100.00;98752.66;5032987;28;19990;-86
2023/08/03 16:50:09;;;;;;;;;;;;;;;5.90;100.00;98758.03;5049600;28;19925;-88
2023/08/03 16:52:36;;;;;;;;;;;;;;;5.85;100.00;98760.00;5032068;28;19925;-88
2023/08/03 16:55:01;;;;;;;;;;;;;;;5.98;100.00;98755.13;5051228;28;20330;-87
2023/08/03 16:57:26;;;;;;;;;;;;;;;5.96;100.00;98760.44;5031567;28;19929;-86
2023/08/03 16:59:51;;;;;;;;;;;;;;;5.91;100.00;98762.38;5033799;28;20452;-86
2023/08/03 17:02:17;;;;;;;;;;;;;;;6.03;100.00;98758.44;5026537;28;19928;-86
2023/08/03 17:04:42;;;;;;;;;;;;;;;6.00;100.00;98756.78;5032448;28;19963;-91
2023/08/03 17:07:07;;;;;;;;;;;;;;;5.91;100.00;98762.38;5049733;28;19924;-86
2023/08/03 17:09:33;;;;;;;;;;;;;;;8.61;100.00;98751.97;5049510;28;19925;-87
2023/08/03 17:11:58;;;;;;;;;;;;;;;6.75;100.00;98765.09;5048273;28;20287;-85
2023/08/03 17:14:25;;;;;;;;;;;;;;;6.39;100.00;98768.34;5050988;28;19975;-86
2023/08/03 17:16:52;;;;;;;;;;;;;;;6.34;100.00;98786.13;5047888;28;20339;-90
2023/08/03 17:19:18;;;;;;;;;;;;;;;6.27;100.00;98779.38;5049620;28;19925;-87
2023/08/03 17:21:43;;;;;;;;;;;;;;;6.14;100.00;98792.19;5050138;28;19925;-87
2023/08/03 17:24:08;;;;;;;;;;;;;;;6.14;100.00;98794.81;5050338;28;19962;-86
2023/08/03 17:26:33;;;;;;;;;;;;;;;5.99;100.00;98796.28;5034583;28;19924;-85
2023/08/03 17:28:59;;;;;;;;;;;;;;;6.22;100.00;98802.41;5053275;28;19920;-87
2023/08/03 17:31:24;;;;;;;;;;;;;;;6.06;100.00;98803.00;5052349;28;19925;-89
2023/08/03 17:33:49;;;;;;;;;;;;;;;6.07;100.00;98806.50;5054595;28;19927;-88
2023/08/03 17:36:14;;;;;;;;;;;;;;;6.21;100.00;98811.19;5054240;28;19925;-85
2023/08/03 17:38:40;;;;;;;;;;;;;;;6.05;100.00;98814.47;5051811;28;20004;-91
2023/08/03 17:41:05;;;;;;;;;;;;;;;6.13;100.00;98811.53;5037132;28;20364;-85
2023/08/03 17:43:31;;;;;;;;;;;;;;;6.03;100.00;98815.44;5055075;28;19917;-86
2023/08/03 17:45:57;;;;;;;;;;;;;;;6.00;100.00;98814.63;5054650;28;19917;-86
2023/08/03 17:48:23;;;;;;;;;;;;;;;6.07;100.00;98809.13;5055166;28;19917;-89
2023/08/03 17:50:48;;;;;;;;;;;;;;;5.93;100.00;98823.63;5054181;28;20261;-87
2023/08/03 17:53:15;;;;;;;;;;;;;;;5.93;100.00;98823.63;5049841;28;19925;-87
2023/08/03 17:55:40;;;;;;;;;;;;;;;5.96;100.00;98828.81;5053188;28;20249;-87
2023/08/03 17:58:05;;;;;;;;;;;;;;;5.97;100.00;98835.78;5034090;28;20002;-87
2023/08/03 18:00:30;;;;;;;;;;;;;;;5.95;100.00;98836.72;5054449;28;20407;-85
2023/08/03 18:02:56;;;;;;;;;;;;;;;5.93;100.00;98841.19;5054281;28;20292;-87
2023/08/03 18:05:22;;;;;;;;;;;;;;;5.88;100.00;98841.38;5052876;28;19920;-87
2023/08/03 18:07:52;;;;;;;;;;;;;;;5.98;100.00;98845.41;5050917;28;19929;-85
2023/08/03 18:10:17;;;;;;;;;;;;;;;5.99;100.00;98847.09;5052612;28;20067;-86
2023/08/03 18:15:47;;;;;;;;;;;;;;;5.98;100.00;98849.78;5021400;28;19932;-90
2023/08/03 18:18:15;;;;;;;;;;;;;;;5.91;100.00;98850.94;5051022;28;19921;-92
2023/08/03 18:20:40;;;;;;;;;;;;;;;5.94;100.00;98856.06;5053152;28;19935;-87
2023/08/03 18:23:05;;;;;;;;;;;;;;;6.01;100.00;98847.03;5051263;28;19921;-87
2023/08/03 18:26:46;;;;;;;;;;;;;;;5.94;100.00;98851.66;5033846;28;19920;-87
2023/08/03 18:28:53;;;;;;;;;;;;;;;6.06;100.00;98867.91;5010030;28;19921;-86
2023/08/03 18:31:18;;;;;;;;;;;;;;;5.98;100.00;98868.19;5051617;28;19932;-87
2023/08/03 18:33:44;;;;;;;;;;;;;;;6.00;100.00;98859.34;5051777;28;19921;-86
2023/08/03 18:36:11;;;;;;;;;;;;;;;5.96;100.00;98864.75;5033743;28;19928;-87
2023/08/03 18:38:37;;;;;;;;;;;;;;;6.06;100.00;98858.22;5031712;28;19982;-84
2023/08/03 18:41:03;;;;;;;;;;;;;;;5.96;100.00;98859.50;5034259;28;20332;-85
2023/08/03 18:46:35;;;;;;;;;;;;;;;5.95;100.00;98871.78;5025751;28;19974;-87
2023/08/03 18:49:01;;;;;;;;;;;;;;;5.87;100.00;98881.75;5035226;28;19964;-83
2023/08/03 18:51:26;;;;;;;;;;;;;;;5.94;100.00;98885.84;5052091;28;19921;-86
2023/08/03 18:53:52;;;;;;;;;;;;;;;6.04;100.00;98888.16;5033028;28;19932;-88
2023/08/03 18:56:19;;;;;;;;;;;;;;;5.99;100.00;98890.97;5051436;28;19931;-86
2023/08/03 18:58:45;;;;;;;;;;;;;;;6.00;100.00;98890.91;5051037;28;19921;-86
2023/08/03 19:01:11;;;;;;;;;;;;;;;5.97;100.00;98885.75;5052448;28;20356;-89
2023/08/03 19:03:39;;;;;;;;;;;;;;;6.04;100.00;98891.63;5052134;28;20007;-86
2023/08/03 19:06:04;;;;;;;;;;;;;;;5.92;100.00;98886.81;5032563;28;20000;-87
2023/08/03 19:08:30;;;;;;;;;;;;;;;5.91;100.00;98887.75;5048933;28;19924;-86
2023/08/03 19:13:59;;;;;;;;;;;;;;;5.93;100.00;98889.38;5051126;28;20575;-86
2023/08/03 19:16:25;;;;;;;;;;;;;;;5.84;100.00;98884.50;5052670;28;19920;-88
2023/08/03 19:18:50;;;;;;;;;;;;;;;5.90;100.00;98896.53;5032182;28;20383;-86
2023/08/03 19:21:15;;;;;;;;;;;;;;;5.91;100.00;98899.09;5048319;28;19939;-89
2023/08/03 19:23:40;;;;;;;;;;;;;;;5.92;100.00;98889.44;5049019;28;19923;-89
2023/08/03 19:26:07;;;;;;;;;;;;;;;5.91;100.00;98904.38;5033271;28;19971;-86
2023/08/03 19:28:33;;;;;;;;;;;;;;;5.87;100.00;98913.31;5033254;28;19974;-86
2023/08/03 19:30:59;;;;;;;;;;;;;;;5.89;100.00;98906.19;5050645;28;19920;-86
2023/08/03 19:33:24;;;;;;;;;;;;;;;5.84;100.00;98902.91;5051020;28;19921;-90
2023/08/03 19:35:50;;;;;;;;;;;;;;;5.90;100.00;98913.16;5050995;28;19921;-88
2023/08/03 19:38:15;;;;;;;;;;;;;;;5.90;100.00;98913.16;5050052;28;19929;-85
2023/08/03 19:40:43;;;;;;;;;;;;;;;5.87;100.00;98917.69;5032170;28;19983;-87
2023/08/03 19:43:09;;;;;;;;;;;;;;;5.85;100.00;98923.00;5032767;28;19927;-86
2023/08/03 19:45:34;;;;;;;;;;;;;;;5.88;100.00;98922.88;5050537;28;19925;-85
2023/08/03 19:47:59;;;;;;;;;;;;;;;5.90;100.00;98923.66;5051464;28;19968;-86
2023/08/03 19:50:25;;;;;;;;;;;;;;;5.90;100.00;98923.66;5050382;28;19928;-85
2023/08/03 19:52:51;;;;;;;;;;;;;;;5.89;100.00;98927.25;5040987;28;19932;-87
2023/08/03 19:55:17;;;;;;;;;;;;;;;5.76;100.00;98931.22;5034050;28;20443;-85
2023/08/03 19:57:42;;;;;;;;;;;;;;;5.74;100.00;98933.91;5052535;28;20059;-85
2023/08/03 20:00:08;;;;;;;;;;;;;;;5.81;100.00;98934.56;5052363;28;19917;-84
2023/08/03 20:02:33;;;;;;;;;;;;;;;5.81;100.00;98937.19;5051367;28;20383;-86
2023/08/03 20:04:58;;;;;;;;;;;;;;;5.81;100.00;98939.81;5051130;28;20014;-85
2023/08/03 20:07:24;;;;;;;;;;;;;;;14.14;100.00;98911.09;5030728;28;20654;-87
2023/08/03 20:09:49;;;;;;;;;;;;;;;7.61;100.00;98929.06;5051676;28;19921;-85
2023/08/03 20:12:14;;;;;;;;;;;;;;;6.65;100.00;98937.50;5050839;28;19925;-88
2023/08/03 20:14:39;;;;;;;;;;;;;;;6.39;100.00;98949.06;5032831;28;19927;-91
2023/08/03 20:17:05;;;;;;;;;;;;;;;6.23;100.00;98952.28;5044263;28;19925;-89
2023/08/03 20:19:30;;;;;;;;;;;;;;;6.17;100.00;98955.16;5052083;28;19971;-94
2023/08/03 20:21:56;;;;;;;;;;;;;;;6.10;100.00;98951.06;5050882;28;20299;-85
2023/08/03 20:24:21;;;;;;;;;;;;;;;5.99;100.00;98944.41;5033566;28;19944;-93
2023/08/03 20:26:46;;;;;;;;;;;;;;;6.07;100.00;98948.53;5052856;28;20279;-92
2023/08/03 20:29:11;;;;;;;;;;;;;;;5.95;100.00;98961.19;5052709;28;20389;-91
2023/08/03 20:31:38;;;;;;;;;;;;;;;6.05;100.00;98961.75;5052575;28;19925;-85
2023/08/03 20:34:03;;;;;;;;;;;;;;;5.99;100.00;98957.56;5032942;28;19917;-91
2023/08/03 20:36:29;;;;;;;;;;;;;;;5.97;100.00;98962.03;5034181;28;20368;-85
2023/08/03 20:38:54;;;;;;;;;;;;;;;5.98;100.00;98961.13;5049690;28;20376;-88
2023/08/03 20:41:19;;;;;;;;;;;;;;;5.97;100.00;98969.91;5051095;28;19927;-92
2023/08/03 20:43:44;;;;;;;;;;;;;;;5.93;100.00;98976.16;5034192;28;19921;-91
2023/08/03 20:46:10;;;;;;;;;;;;;;;5.91;100.00;98970.09;5051931;28;19921;-91
2023/08/03 20:48:36;;;;;;;;;;;;;;;5.90;100.00;98971.00;5033357;28;20265;-92
2023/08/03 20:51:01;;;;;;;;;;;;;;;6.05;100.00;98963.50;5032346;28;19917;-92
2023/08/03 20:53:26;;;;;;;;;;;;;;;5.99;100.00;98968.06;5033543;28;20364;-94
2023/08/03 20:55:51;;;;;;;;;;;;;;;5.95;100.00;98979.59;5053591;28;19978;-90
2023/08/03 20:58:17;;;;;;;;;;;;;;;6.03;100.00;98978.47;5034084;28;19925;-86
2023/08/03 21:00:44;;;;;;;;;;;;;;;5.91;100.00;98971.88;5047946;28;19921;-83
2023/08/03 21:03:09;;;;;;;;;;;;;;;5.88;100.00;98972.84;5055228;28;20371;-86
2023/08/03 21:05:40;;;;;;;;;;;;;;;5.94;100.00;98980.50;5036645;28;19928;-85